NCAR-RAP Real-Time Weather Data

Output produced by METARs form (30 April 2017  15:04 UTC)
found at http://weather.rap.ucar.edu/surface/
 
Conditions at: KCOF observed 30 April 2017  14:58 UTC
Temperature: 27.4°C (81°F)
Dewpoint: 22.2°C (72°F) [RH = 73%]
Pressure (altimeter): 30.13 inches Hg (1020.4 mb)
[Sea-level pressure: 1020.7 mb]
Winds: from the SSE (150 degrees) at 18 MPH (16 knots; 8.3 m/s)
Visibility: 10 or more miles (16+ km)
Ceiling: at least 12,000 feet AGL
Clouds: sky clear below 12,000 feet AGL
Present Weather:
SOME DATA ABOVE MAY BE INACCURATE!!!
"$" is an indication the sensor requires maintenance
KCOF 301458Z AUTO 15016KT 10SM CLR 27/22 A3013 RMK AO2 SLP207 T02740222 58002 $

Conditions at: KCOF observed 30 April 2017  13:58 UTC
Temperature: 27.8°C (82°F)
Dewpoint: 21.6°C (71°F) [RH = 69%]
Pressure (altimeter): 30.13 inches Hg (1020.4 mb)
[Sea-level pressure: 1020.7 mb]
Winds: from the SSE (160 degrees) at 20 MPH (17 knots; 8.8 m/s)
Visibility: 10 or more miles (16+ km)
Ceiling: at least 12,000 feet AGL
Clouds: sky clear below 12,000 feet AGL
Present Weather:
SOME DATA ABOVE MAY BE INACCURATE!!!
"$" is an indication the sensor requires maintenance
KCOF 301358Z AUTO 16017KT 10SM CLR 28/22 A3013 RMK AO2 SLP207 T02780216 $

Conditions at: KCOF observed 30 April 2017  12:58 UTC
Temperature: 27.1°C (81°F)
Dewpoint: 21.7°C (71°F) [RH = 72%]
Pressure (altimeter): 30.14 inches Hg (1020.7 mb)
[Sea-level pressure: 1021.1 mb]
Winds: from the SSE (160 degrees) at 18 MPH (16 knots; 8.3 m/s)
Visibility: 10 or more miles (16+ km)
Ceiling: at least 12,000 feet AGL
Clouds: sky clear below 12,000 feet AGL
Present Weather:
SOME DATA ABOVE MAY BE INACCURATE!!!
"$" is an indication the sensor requires maintenance
KCOF 301258Z AUTO 16016KT 10SM CLR 27/22 A3014 RMK AO2 SLP211 T02710217 $

Conditions at: KCOF observed 30 April 2017  11:58 UTC
Temperature: 25.3°C (78°F)
Dewpoint: 21.7°C (71°F) [RH = 81%]
Pressure (altimeter): 30.14 inches Hg (1020.7 mb)
[Sea-level pressure: 1021.1 mb]
Winds: from the SSE (150 degrees) at 18 MPH (16 knots; 8.3 m/s)
Visibility: 10 or more miles (16+ km)
Ceiling: at least 12,000 feet AGL
Clouds: sky clear below 12,000 feet AGL
Present Weather:
SOME DATA ABOVE MAY BE INACCURATE!!!
"$" is an indication the sensor requires maintenance
KCOF 301158Z AUTO 15016KT 10SM CLR 25/22 A3014 RMK AO2 SLP211 T02530217 10253 20249 52014 $

Conditions at: KCOF observed 30 April 2017  10:58 UTC
Temperature: 25.0°C (77°F)
Dewpoint: 22.0°C (72°F) [RH = 83%]
Pressure (altimeter): 30.12 inches Hg (1020.1 mb)
[Sea-level pressure: 1020.4 mb]
Winds: from the SSE (150 degrees) at 16 MPH (14 knots; 7.3 m/s)
Visibility: 10 or more miles (16+ km)
Ceiling: at least 12,000 feet AGL
Clouds: sky clear below 12,000 feet AGL
Present Weather:
SOME DATA ABOVE MAY BE INACCURATE!!!
"$" is an indication the sensor requires maintenance
KCOF 301058Z AUTO 15014KT 10SM CLR 25/22 A3012 RMK AO2 SLP204 T02500220 $

Conditions at: KCOF observed 30 April 2017  09:58 UTC
Temperature: 24.9°C (77°F)
Dewpoint: 21.5°C (71°F) [RH = 81%]
Pressure (altimeter): 30.10 inches Hg (1019.4 mb)
[Sea-level pressure: 1019.7 mb]
Winds: from the SSE (150 degrees) at 18 MPH (16 knots; 8.3 m/s)
Visibility: 10 or more miles (16+ km)
Ceiling: at least 12,000 feet AGL
Clouds: sky clear below 12,000 feet AGL
Present Weather:
SOME DATA ABOVE MAY BE INACCURATE!!!
"$" is an indication the sensor requires maintenance
KCOF 300958Z AUTO 15016KT 10SM CLR 25/22 A3010 RMK AO2 SLP197 T02490215 $

Conditions at: KCOF observed 30 April 2017  08:58 UTC
Temperature: 25.0°C (77°F)
Dewpoint: 21.8°C (71°F) [RH = 82%]
Pressure (altimeter): 30.10 inches Hg (1019.4 mb)
[Sea-level pressure: 1019.7 mb]
Winds: from the SSE (160 degrees) at 20 MPH (17 knots; 8.8 m/s)
Visibility: 10 or more miles (16+ km)
Ceiling: at least 12,000 feet AGL
Clouds: sky clear below 12,000 feet AGL
Present Weather:
SOME DATA ABOVE MAY BE INACCURATE!!!
"$" is an indication the sensor requires maintenance
KCOF 300858Z AUTO 16017KT 10SM CLR 25/22 A3010 RMK AO2 SLP197 T02500218 55005 $

Conditions at: KCOF observed 30 April 2017  07:58 UTC
Temperature: 25.2°C (77°F)
Dewpoint: 22.2°C (72°F) [RH = 83%]
Pressure (altimeter): 30.09 inches Hg (1019.0 mb)
[Sea-level pressure: 1019.4 mb]
Winds: from the SE (140 degrees) at 21 MPH (18 knots; 9.4 m/s)
Visibility: 10 or more miles (16+ km)
Ceiling: at least 12,000 feet AGL
Clouds: sky clear below 12,000 feet AGL
Present Weather:
SOME DATA ABOVE MAY BE INACCURATE!!!
"$" is an indication the sensor requires maintenance
KCOF 300758Z AUTO 14018KT 10SM CLR 25/22 A3009 RMK AO2 SLP194 T02520222 $

Conditions at: KCOF observed 30 April 2017  06:58 UTC
Temperature: 25.2°C (77°F)
Dewpoint: 22.6°C (73°F) [RH = 86%]
Pressure (altimeter): 30.10 inches Hg (1019.4 mb)
[Sea-level pressure: 1019.7 mb]
Winds: from the SE (140 degrees) at 21 MPH (18 knots; 9.4 m/s)
Visibility: 10 or more miles (16+ km)
Ceiling: at least 12,000 feet AGL
Clouds: sky clear below 12,000 feet AGL
Present Weather:
SOME DATA ABOVE MAY BE INACCURATE!!!
"$" is an indication the sensor requires maintenance
KCOF 300658Z AUTO 14018KT 10SM CLR 25/23 A3010 RMK AO2 SLP197 T02520226 $

Conditions at: KCOF observed 30 April 2017  05:58 UTC
Temperature: 25.1°C (77°F)
Dewpoint: 22.5°C (72°F) [RH = 86%]
Pressure (altimeter): 30.11 inches Hg (1019.7 mb)
[Sea-level pressure: 1020.0 mb]
Winds: from the SE (130 degrees) at 22 MPH (19 knots; 9.9 m/s)
Visibility: 10 or more miles (16+ km)
Ceiling: at least 12,000 feet AGL
Clouds: sky clear below 12,000 feet AGL
Present Weather:
SOME DATA ABOVE MAY BE INACCURATE!!!
"$" is an indication the sensor requires maintenance
KCOF 300558Z AUTO 13019KT 10SM CLR 25/23 A3011 RMK AO2 SLP200 T02510225 10257 20251 58007 $

Conditions at: KCOF observed 30 April 2017  04:58 UTC
Temperature: 25.2°C (77°F)
Dewpoint: 22.6°C (73°F) [RH = 86%]
Pressure (altimeter): 30.13 inches Hg (1020.4 mb)
[Sea-level pressure: 1020.7 mb]
Winds: from the SE (130 degrees) at 21 MPH (18 knots; 9.4 m/s)
Visibility: 10 or more miles (16+ km)
Ceiling: at least 12,000 feet AGL
Clouds: sky clear below 12,000 feet AGL
Present Weather:
SOME DATA ABOVE MAY BE INACCURATE!!!
"$" is an indication the sensor requires maintenance
KCOF 300458Z AUTO 13018KT 10SM CLR 25/23 A3013 RMK AO2 SLP207 T02520226 402940247 $

Conditions at: KCOF observed 30 April 2017  03:58 UTC
Temperature: 25.4°C (78°F)
Dewpoint: 22.6°C (73°F) [RH = 85%]
Pressure (altimeter): 30.14 inches Hg (1020.7 mb)
[Sea-level pressure: 1021.1 mb]
Winds: from the SE (130 degrees) at 21 MPH (18 knots; 9.4 m/s)
Visibility: 10 or more miles (16+ km)
Ceiling: at least 12,000 feet AGL
Clouds: sky clear below 12,000 feet AGL
Present Weather:
SOME DATA ABOVE MAY BE INACCURATE!!!
"$" is an indication the sensor requires maintenance
KCOF 300358Z AUTO 13018KT 10SM CLR 25/23 A3014 RMK AO2 SLP211 T02540226 $

Conditions at: KCOF observed 30 April 2017  02:58 UTC
Temperature: 25.3°C (78°F)
Dewpoint: 22.7°C (73°F) [RH = 86%]
Pressure (altimeter): 30.13 inches Hg (1020.4 mb)
[Sea-level pressure: 1020.7 mb]
Winds: from the SE (130 degrees) at 20 MPH (17 knots; 8.8 m/s)
Visibility: 10 or more miles (16+ km)
Ceiling: at least 12,000 feet AGL
Clouds: sky clear below 12,000 feet AGL
Present Weather:
SOME DATA ABOVE MAY BE INACCURATE!!!
"$" is an indication the sensor requires maintenance
KCOF 300258Z AUTO 13017KT 10SM CLR 25/23 A3013 RMK AO2 SLP207 T02530227 51003 $

Conditions at: KCOF observed 30 April 2017  01:58 UTC
Temperature: 25.4°C (78°F)
Dewpoint: 22.6°C (73°F) [RH = 85%]
Pressure (altimeter): 30.13 inches Hg (1020.4 mb)
[Sea-level pressure: 1020.7 mb]
Winds: from the ESE (120 degrees) at 17 MPH (15 knots; 7.8 m/s)
Visibility: 10 or more miles (16+ km)
Ceiling: at least 12,000 feet AGL
Clouds: sky clear below 12,000 feet AGL
Present Weather:
SOME DATA ABOVE MAY BE INACCURATE!!!
"$" is an indication the sensor requires maintenance
KCOF 300158Z AUTO 12015KT 10SM CLR 25/23 A3013 RMK AO2 SLP207 T02540226 $

Conditions at: KCOF observed 30 April 2017  00:58 UTC
Temperature: 25.5°C (78°F)
Dewpoint: 22.3°C (72°F) [RH = 83%]
Pressure (altimeter): 30.13 inches Hg (1020.4 mb)
[Sea-level pressure: 1020.7 mb]
Winds: from the ESE (120 degrees) at 17 MPH (15 knots; 7.8 m/s)
Visibility: 10 or more miles (16+ km)
Ceiling: at least 12,000 feet AGL
Clouds: sky clear below 12,000 feet AGL
Present Weather:
SOME DATA ABOVE MAY BE INACCURATE!!!
"$" is an indication the sensor requires maintenance
KCOF 300058Z AUTO 12015KT 10SM CLR 26/22 A3013 RMK AO2 SLP207 T02550223 $

Conditions at: KCOF observed 29 April 2017  23:58 UTC
Temperature: 25.8°C (78°F)
Dewpoint: 22.3°C (72°F) [RH = 81%]
Pressure (altimeter): 30.12 inches Hg (1020.1 mb)
[Sea-level pressure: 1020.4 mb]
Winds: from the ESE (120 degrees) at 16 MPH (14 knots; 7.3 m/s)
Visibility: 10 or more miles (16+ km)
Ceiling: at least 12,000 feet AGL
Clouds: sky clear below 12,000 feet AGL
Present Weather:
SOME DATA ABOVE MAY BE INACCURATE!!!
"$" is an indication the sensor requires maintenance
KCOF 292358Z AUTO 12014KT 10SM CLR 26/22 A3012 RMK AO2 SLP204 T02580223 10294 20258 50000 $

Conditions at: KCOF observed 29 April 2017  22:58 UTC
Temperature: 26.7°C (80°F)
Dewpoint: 22.0°C (72°F) [RH = 75%]
Pressure (altimeter): 30.12 inches Hg (1020.1 mb)
[Sea-level pressure: 1020.4 mb]
Winds: from the ESE (120 degrees) at 14 MPH (12 knots; 6.2 m/s)
Visibility: 10 or more miles (16+ km)
Ceiling: at least 12,000 feet AGL
Clouds: sky clear below 12,000 feet AGL
Present Weather:
SOME DATA ABOVE MAY BE INACCURATE!!!
"$" is an indication the sensor requires maintenance
KCOF 292258Z AUTO 12012KT 10SM CLR 27/22 A3012 RMK AO2 SLP204 T02670220 $

Conditions at: KCOF observed 29 April 2017  21:58 UTC
Temperature: 27.8°C (82°F)
Dewpoint: 21.8°C (71°F) [RH = 70%]
Pressure (altimeter): 30.12 inches Hg (1020.1 mb)
[Sea-level pressure: 1020.4 mb]
Winds: from the SE (130 degrees) at 16 MPH (14 knots; 7.3 m/s)
Visibility: 10 or more miles (16+ km)
Ceiling: at least 12,000 feet AGL
Clouds: sky clear below 12,000 feet AGL
Present Weather:
SOME DATA ABOVE MAY BE INACCURATE!!!
"$" is an indication the sensor requires maintenance
KCOF 292158Z AUTO 13014KT 10SM CLR 28/22 A3012 RMK AO2 SLP204 T02780218 $

Conditions at: KCOF observed 29 April 2017  20:58 UTC
Temperature: 28.5°C (83°F)
Dewpoint: 21.5°C (71°F) [RH = 66%]
Pressure (altimeter): 30.12 inches Hg (1020.1 mb)
[Sea-level pressure: 1020.4 mb]
Winds: from the SE (130 degrees) at 17 MPH (15 knots; 7.8 m/s)
Visibility: 10 or more miles (16+ km)
Ceiling: at least 12,000 feet AGL
Clouds: sky clear below 12,000 feet AGL
Present Weather:
SOME DATA ABOVE MAY BE INACCURATE!!!
"$" is an indication the sensor requires maintenance
KCOF 292058Z AUTO 13015KT 10SM CLR 29/22 A3012 RMK AO2 SLP204 T02850215 57014 $

Conditions at: KCOF observed 29 April 2017  19:58 UTC
Temperature: 28.8°C (84°F)
Dewpoint: 21.5°C (71°F) [RH = 65%]
Pressure (altimeter): 30.13 inches Hg (1020.4 mb)
[Sea-level pressure: 1020.7 mb]
Winds: from the SE (130 degrees) at 17 MPH (15 knots; 7.8 m/s)
Visibility: 10 or more miles (16+ km)
Ceiling: at least 12,000 feet AGL
Clouds: sky clear below 12,000 feet AGL
Present Weather:
SOME DATA ABOVE MAY BE INACCURATE!!!
"$" is an indication the sensor requires maintenance
KCOF 291958Z AUTO 13015KT 10SM CLR 29/22 A3013 RMK AO2 SLP207 T02880215 $

Conditions at: KCOF observed 29 April 2017  18:58 UTC
Temperature: 29.4°C (85°F)
Dewpoint: 22.0°C (72°F) [RH = 65%]
Pressure (altimeter): 30.15 inches Hg (1021.1 mb)
[Sea-level pressure: 1021.4 mb]
Winds: from the SE (130 degrees) at 16 MPH (14 knots; 7.3 m/s)
Visibility: 10 or more miles (16+ km)
Ceiling: at least 12,000 feet AGL
Clouds: sky clear below 12,000 feet AGL
Present Weather:
SOME DATA ABOVE MAY BE INACCURATE!!!
"$" is an indication the sensor requires maintenance
KCOF 291858Z AUTO 13014KT 10SM CLR 29/22 A3015 RMK AO2 SLP214 T02940220 $

Conditions at: KCOF observed 29 April 2017  17:58 UTC
Temperature: 29.3°C (85°F)
Dewpoint: 21.8°C (71°F) [RH = 64%]
Pressure (altimeter): 30.16 inches Hg (1021.4 mb)
[Sea-level pressure: 1021.7 mb]
Winds: from the SE (130 degrees) at 17 MPH (15 knots; 7.8 m/s)
Visibility: 10 or more miles (16+ km)
Ceiling: at least 12,000 feet AGL
Clouds: sky clear below 12,000 feet AGL
Present Weather:
SOME DATA ABOVE MAY BE INACCURATE!!!
"$" is an indication the sensor requires maintenance
KCOF 291758Z AUTO 13015KT 10SM CLR 29/22 A3016 RMK AO2 SLP217 T02930218 10293 20261 57007 $

Conditions at: KCOF observed 29 April 2017  16:58 UTC
Temperature: 29.2°C (85°F)
Dewpoint: 21.7°C (71°F) [RH = 64%]
Pressure (altimeter): 30.17 inches Hg (1021.8 mb)
[Sea-level pressure: 1022.1 mb]
Winds: from the SE (130 degrees) at 15 MPH (13 knots; 6.8 m/s)
Visibility: 10 or more miles (16+ km)
Ceiling: at least 12,000 feet AGL
Clouds: sky clear below 12,000 feet AGL
Present Weather:
SOME DATA ABOVE MAY BE INACCURATE!!!
"$" is an indication the sensor requires maintenance
KCOF 291658Z AUTO 13013KT 10SM CLR 29/22 A3017 RMK AO2 SLP221 T02920217 $

Conditions at: KCOF observed 29 April 2017  15:58 UTC
Temperature: 29.1°C (84°F)
Dewpoint: 21.6°C (71°F) [RH = 64%]
Pressure (altimeter): 30.18 inches Hg (1022.1 mb)
[Sea-level pressure: 1022.4 mb]
Winds: from the SE (130 degrees) at 18 MPH (16 knots; 8.3 m/s)
Visibility: 10 or more miles (16+ km)
Ceiling: at least 12,000 feet AGL
Clouds: sky clear below 12,000 feet AGL
Present Weather:
SOME DATA ABOVE MAY BE INACCURATE!!!
"$" is an indication the sensor requires maintenance
KCOF 291558Z AUTO 13016KT 10SM CLR 29/22 A3018 RMK AO2 SLP224 T02910216 $

Conditions at: KCOF observed 29 April 2017  14:58 UTC
Temperature: 28.6°C (83°F)
Dewpoint: 22.0°C (72°F) [RH = 68%]
Pressure (altimeter): 30.18 inches Hg (1022.1 mb)
[Sea-level pressure: 1022.4 mb]
Winds: from the SE (140 degrees) at 17 MPH (15 knots; 7.8 m/s)
Visibility: 10 or more miles (16+ km)
Ceiling: at least 12,000 feet AGL
Clouds: sky clear below 12,000 feet AGL
Present Weather:
SOME DATA ABOVE MAY BE INACCURATE!!!
"$" is an indication the sensor requires maintenance
KCOF 291458Z AUTO 14015KT 10SM CLR 29/22 A3018 RMK AO2 SLP224 T02860220 52011 $

Conditions at: KCOF observed 29 April 2017  13:58 UTC
Temperature: 28.1°C (83°F)
Dewpoint: 22.0°C (72°F) [RH = 70%]
Pressure (altimeter): 30.17 inches Hg (1021.8 mb)
[Sea-level pressure: 1022.1 mb]
Winds: from the SSE (150 degrees) at 17 MPH (15 knots; 7.8 m/s)
Visibility: 10 or more miles (16+ km)
Ceiling: at least 12,000 feet AGL
Clouds: sky clear below 12,000 feet AGL
Present Weather:
SOME DATA ABOVE MAY BE INACCURATE!!!
"$" is an indication the sensor requires maintenance
KCOF 291358Z AUTO 15015KT 10SM CLR 28/22 A3017 RMK AO2 SLP221 T02810220 $

Conditions at: KCOF observed 29 April 2017  12:58 UTC
Temperature: 27.1°C (81°F)
Dewpoint: 22.3°C (72°F) [RH = 75%]
Pressure (altimeter): 30.16 inches Hg (1021.4 mb)
[Sea-level pressure: 1021.7 mb]
Winds: from the SE (140 degrees) at 17 MPH (15 knots; 7.8 m/s)
Visibility: 10 or more miles (16+ km)
Ceiling: at least 12,000 feet AGL
Clouds: sky clear below 12,000 feet AGL
Present Weather:
SOME DATA ABOVE MAY BE INACCURATE!!!
"$" is an indication the sensor requires maintenance
KCOF 291258Z AUTO 14015KT 10SM CLR 27/22 A3016 RMK AO2 SLP217 T02710223 $

Conditions at: KCOF observed 29 April 2017  11:58 UTC
Temperature: 25.9°C (79°F)
Dewpoint: 22.7°C (73°F) [RH = 83%]
Pressure (altimeter): 30.15 inches Hg (1021.1 mb)
[Sea-level pressure: 1021.4 mb]
Winds: from the SE (140 degrees) at 15 MPH (13 knots; 6.8 m/s)
Visibility: 10 or more miles (16+ km)
Ceiling: at least 12,000 feet AGL
Clouds: sky clear below 12,000 feet AGL
Present Weather:
SOME DATA ABOVE MAY BE INACCURATE!!!
"$" is an indication the sensor requires maintenance
KCOF 291158Z AUTO 14013KT 10SM CLR 26/23 A3015 RMK AO2 SLP214 T02590227 10259 20247 52014 $

Conditions at: KCOF observed 29 April 2017  10:58 UTC
Temperature: 24.9°C (77°F)
Dewpoint: 22.6°C (73°F) [RH = 87%]
Pressure (altimeter): 30.13 inches Hg (1020.4 mb)
[Sea-level pressure: 1020.7 mb]
Winds: from the SE (140 degrees) at 14 MPH (12 knots; 6.2 m/s)
Visibility: 10 or more miles (16+ km)
Ceiling: at least 12,000 feet AGL
Clouds: sky clear below 12,000 feet AGL
Present Weather:
SOME DATA ABOVE MAY BE INACCURATE!!!
"$" is an indication the sensor requires maintenance
KCOF 291058Z AUTO 14012KT 10SM CLR 25/23 A3013 RMK AO2 SLP207 T02490226 $

Conditions at: KCOF observed 29 April 2017  09:58 UTC
Temperature: 24.8°C (77°F)
Dewpoint: 23.1°C (74°F) [RH = 90%]
Pressure (altimeter): 30.12 inches Hg (1020.1 mb)
[Sea-level pressure: 1020.4 mb]
Winds: from the SE (140 degrees) at 14 MPH (12 knots; 6.2 m/s)
Visibility: 10 or more miles (16+ km)
Ceiling: at least 12,000 feet AGL
Clouds: sky clear below 12,000 feet AGL
Present Weather:
SOME DATA ABOVE MAY BE INACCURATE!!!
"$" is an indication the sensor requires maintenance
KCOF 290958Z AUTO 14012KT 10SM CLR 25/23 A3012 RMK AO2 SLP204 T02480231 $

Conditions at: KCOF observed 29 April 2017  08:58 UTC
Temperature: 25.0°C (77°F)
Dewpoint: 23.6°C (74°F) [RH = 92%]
Pressure (altimeter): 30.11 inches Hg (1019.7 mb)
[Sea-level pressure: 1020.0 mb]
Winds: from the SE (140 degrees) at 16 MPH (14 knots; 7.3 m/s)
Visibility: 10 or more miles (16+ km)
Ceiling: at least 12,000 feet AGL
Clouds: sky clear below 12,000 feet AGL
Present Weather:
SOME DATA ABOVE MAY BE INACCURATE!!!
"$" is an indication the sensor requires maintenance
KCOF 290858Z AUTO 14014KT 10SM CLR 25/24 A3011 RMK AO2 SLP200 T02500236 55004 $

Conditions at: KCOF observed 29 April 2017  07:58 UTC
Temperature: 25.0°C (77°F)
Dewpoint: 23.5°C (74°F) [RH = 91%]
Pressure (altimeter): 30.11 inches Hg (1019.7 mb)
[Sea-level pressure: 1020.0 mb]
Winds: from the SE (130 degrees) at 15 MPH (13 knots; 6.8 m/s)
Visibility: 10 or more miles (16+ km)
Ceiling: at least 12,000 feet AGL
Clouds: sky clear below 12,000 feet AGL
Present Weather:
SOME DATA ABOVE MAY BE INACCURATE!!!
"$" is an indication the sensor requires maintenance
KCOF 290758Z AUTO 13013KT 10SM CLR 25/24 A3011 RMK AO2 SLP200 T02500235 $

Conditions at: KCOF observed 29 April 2017  06:58 UTC
Temperature: 25.2°C (77°F)
Dewpoint: 23.8°C (75°F) [RH = 92%]
Pressure (altimeter): 30.11 inches Hg (1019.7 mb)
[Sea-level pressure: 1020.0 mb]
Winds: from the SE (130 degrees) at 17 MPH (15 knots; 7.8 m/s)
Visibility: 10 or more miles (16+ km)
Ceiling: at least 12,000 feet AGL
Clouds: sky clear below 12,000 feet AGL
Present Weather:
SOME DATA ABOVE MAY BE INACCURATE!!!
"$" is an indication the sensor requires maintenance
KCOF 290658Z AUTO 13015KT 10SM CLR 25/24 A3011 RMK AO2 SLP200 T02520238 $

Conditions at: KCOF observed 29 April 2017  05:58 UTC
Temperature: 25.3°C (78°F)
Dewpoint: 24.3°C (76°F) [RH = 94%]
Pressure (altimeter): 30.13 inches Hg (1020.4 mb)
[Sea-level pressure: 1020.7 mb]
Winds: from the SE (130 degrees) at 15 MPH (13 knots; 6.8 m/s)
Visibility: 10 or more miles (16+ km)
Ceiling: at least 12,000 feet AGL
Clouds: sky clear below 12,000 feet AGL
Present Weather:
SOME DATA ABOVE MAY BE INACCURATE!!!
"$" is an indication the sensor requires maintenance
KCOF 290558Z AUTO 13013KT 10SM CLR 25/24 A3013 RMK AO2 SLP207 T02530243 10259 20252 50000 $

Conditions at: KCOF observed 29 April 2017  04:58 UTC
Temperature: 25.3°C (78°F)
Dewpoint: 24.5°C (76°F) [RH = 95%]
Pressure (altimeter): 30.13 inches Hg (1020.4 mb)
[Sea-level pressure: 1020.7 mb]
Winds: from the SE (130 degrees) at 16 MPH (14 knots; 7.3 m/s)
Visibility: 10 or more miles (16+ km)
Ceiling: at least 12,000 feet AGL
Clouds: sky clear below 12,000 feet AGL
Present Weather:
SOME DATA ABOVE MAY BE INACCURATE!!!
"$" is an indication the sensor requires maintenance
KCOF 290458Z AUTO 13014KT 10SM CLR 25/25 A3013 RMK AO2 SLP207 T02530245 402960244 $

Conditions at: KCOF observed 29 April 2017  03:58 UTC
Temperature: 25.4°C (78°F)
Dewpoint: 24.4°C (76°F) [RH = 94%]
Pressure (altimeter): 30.13 inches Hg (1020.4 mb)
[Sea-level pressure: 1020.7 mb]
Winds: from the SE (130 degrees) at 16 MPH (14 knots; 7.3 m/s)
Visibility: 10 or more miles (16+ km)
Ceiling: at least 12,000 feet AGL
Clouds: sky clear below 12,000 feet AGL
Present Weather:
SOME DATA ABOVE MAY BE INACCURATE!!!
"$" is an indication the sensor requires maintenance
KCOF 290358Z AUTO 13014KT 10SM CLR 25/24 A3013 RMK AO2 SLP207 T02540244 $

Conditions at: KCOF observed 29 April 2017  02:58 UTC
Temperature: 25.5°C (78°F)
Dewpoint: 24.3°C (76°F) [RH = 93%]
Pressure (altimeter): 30.13 inches Hg (1020.4 mb)
[Sea-level pressure: 1020.7 mb]
Winds: from the SE (140 degrees) at 14 MPH (12 knots; 6.2 m/s)
Visibility: 10 or more miles (16+ km)
Ceiling: at least 12,000 feet AGL
Clouds: sky clear below 12,000 feet AGL
Present Weather:
SOME DATA ABOVE MAY BE INACCURATE!!!
"$" is an indication the sensor requires maintenance
KCOF 290258Z AUTO 14012KT 10SM CLR 26/24 A3013 RMK AO2 SLP207 T02550243 52016 $

Conditions at: KCOF observed 29 April 2017  01:58 UTC
Temperature: 25.5°C (78°F)
Dewpoint: 24.1°C (75°F) [RH = 92%]
Pressure (altimeter): 30.11 inches Hg (1019.7 mb)
[Sea-level pressure: 1020.0 mb]
Winds: from the SE (140 degrees) at 15 MPH (13 knots; 6.8 m/s)
Visibility: 10 or more miles (16+ km)
Ceiling: at least 12,000 feet AGL
Clouds: sky clear below 12,000 feet AGL
Present Weather:
SOME DATA ABOVE MAY BE INACCURATE!!!
"$" is an indication the sensor requires maintenance
KCOF 290158Z AUTO 14013KT 10SM CLR 26/24 A3011 RMK AO2 SLP200 T02550241 $

Conditions at: KCOF observed 29 April 2017  00:58 UTC
Temperature: 25.7°C (78°F)
Dewpoint: 24.1°C (75°F) [RH = 91%]
Pressure (altimeter): 30.09 inches Hg (1019.0 mb)
[Sea-level pressure: 1019.4 mb]
Winds: from the SE (140 degrees) at 14 MPH (12 knots; 6.2 m/s)
Visibility: 10 or more miles (16+ km)
Ceiling: at least 12,000 feet AGL
Clouds: sky clear below 12,000 feet AGL
Present Weather:
SOME DATA ABOVE MAY BE INACCURATE!!!
"$" is an indication the sensor requires maintenance
KCOF 290058Z AUTO 14012KT 10SM CLR 26/24 A3009 RMK AO2 SLP194 T02570241 $

Conditions at: KCOF observed 28 April 2017  23:58 UTC
Temperature: 26.1°C (79°F)
Dewpoint: 23.8°C (75°F) [RH = 87%]
Pressure (altimeter): 30.08 inches Hg (1018.7 mb)
[Sea-level pressure: 1019.0 mb]
Winds: from the SE (140 degrees) at 17 MPH (15 knots; 7.8 m/s)
Visibility: 10 or more miles (16+ km)
Ceiling: at least 12,000 feet AGL
Clouds: sky clear below 12,000 feet AGL
Present Weather:
SOME DATA ABOVE MAY BE INACCURATE!!!
"$" is an indication the sensor requires maintenance
KCOF 282358Z AUTO 14015KT 10SM CLR 26/24 A3008 RMK AO2 SLP190 T02610238 10295 20261 50003 $

Conditions at: KCOF observed 28 April 2017  22:58 UTC
Temperature: 27.2°C (81°F)
Dewpoint: 23.6°C (74°F) [RH = 81%]
Pressure (altimeter): 30.07 inches Hg (1018.4 mb)
[Sea-level pressure: 1018.7 mb]
Winds: from the SSE (150 degrees) at 16 MPH (14 knots; 7.3 m/s)
Visibility: 10 or more miles (16+ km)
Ceiling: at least 12,000 feet AGL
Clouds: sky clear below 12,000 feet AGL
Present Weather:
SOME DATA ABOVE MAY BE INACCURATE!!!
"$" is an indication the sensor requires maintenance
KCOF 282258Z AUTO 15014KT 10SM CLR 27/24 A3007 RMK AO2 SLP187 T02720236 $

Conditions at: KCOF observed 28 April 2017  21:58 UTC
Temperature: 27.4°C (81°F)
Dewpoint: 23.7°C (75°F) [RH = 80%]
Pressure (altimeter): 30.08 inches Hg (1018.7 mb)
[Sea-level pressure: 1019.0 mb]
Winds: from the SE (140 degrees) at 16 MPH (14 knots; 7.3 m/s)
Visibility: 10 or more miles (16+ km)
Ceiling: at least 12,000 feet AGL
Clouds: sky clear below 12,000 feet AGL
Present Weather:
SOME DATA ABOVE MAY BE INACCURATE!!!
"$" is an indication the sensor requires maintenance
KCOF 282158Z AUTO 14014KT 10SM CLR 27/24 A3008 RMK AO2 SLP190 T02740237 $

Conditions at: KCOF observed 28 April 2017  20:58 UTC
Temperature: 28.6°C (83°F)
Dewpoint: 23.4°C (74°F) [RH = 74%]
Pressure (altimeter): 30.07 inches Hg (1018.4 mb)
[Sea-level pressure: 1018.7 mb]
Winds: from the SE (140 degrees) at 17 MPH (15 knots; 7.8 m/s)
Visibility: 10 or more miles (16+ km)
Ceiling: at least 12,000 feet AGL
Clouds: sky clear below 12,000 feet AGL
Present Weather:
SOME DATA ABOVE MAY BE INACCURATE!!!
"$" is an indication the sensor requires maintenance
KCOF 282058Z AUTO 14015KT 10SM CLR 29/23 A3007 RMK AO2 SLP187 T02860234 57006 $

Conditions at: KCOF observed 28 April 2017  19:58 UTC
Temperature: 29.1°C (84°F)
Dewpoint: 23.5°C (74°F) [RH = 72%]
Pressure (altimeter): 30.08 inches Hg (1018.7 mb)
[Sea-level pressure: 1019.0 mb]
Winds: from the SE (130 degrees) at 17 MPH (15 knots; 7.8 m/s)
Visibility: 10 or more miles (16+ km)
Ceiling: at least 12,000 feet AGL
Clouds: sky clear below 12,000 feet AGL
Present Weather:
SOME DATA ABOVE MAY BE INACCURATE!!!
"$" is an indication the sensor requires maintenance
KCOF 281958Z AUTO 13015KT 10SM CLR 29/24 A3008 RMK AO2 SLP190 T02910235 $

Conditions at: KCOF observed 28 April 2017  18:58 UTC
Temperature: 29.1°C (84°F)
Dewpoint: 23.6°C (74°F) [RH = 72%]
Pressure (altimeter): 30.08 inches Hg (1018.7 mb)
[Sea-level pressure: 1019.0 mb]
Winds: from the SE (130 degrees) at 20 MPH (17 knots; 8.8 m/s)
Visibility: 10 or more miles (16+ km)
Ceiling: at least 12,000 feet AGL
Clouds: sky clear below 12,000 feet AGL
Present Weather:
SOME DATA ABOVE MAY BE INACCURATE!!!
"$" is an indication the sensor requires maintenance
KCOF 281858Z AUTO 13017KT 10SM CLR 29/24 A3008 RMK AO2 SLP190 T02910236 $

Conditions at: KCOF observed 28 April 2017  17:58 UTC
Temperature: 29.6°C (85°F)
Dewpoint: 23.8°C (75°F) [RH = 71%]
Pressure (altimeter): 30.09 inches Hg (1019.0 mb)
[Sea-level pressure: 1019.4 mb]
Winds: from the SE (130 degrees) at 17 MPH (15 knots; 7.8 m/s)
Visibility: 10 or more miles (16+ km)
Ceiling: at least 12,000 feet AGL
Clouds: sky clear below 12,000 feet AGL
Present Weather:
SOME DATA ABOVE MAY BE INACCURATE!!!
"$" is an indication the sensor requires maintenance
KCOF 281758Z AUTO 13015KT 10SM CLR 30/24 A3009 RMK AO2 SLP194 T02960238 10296 20256 57005 $

Conditions at: KCOF observed 28 April 2017  16:58 UTC
Temperature: 29.3°C (85°F)
Dewpoint: 23.9°C (75°F) [RH = 73%]
Pressure (altimeter): 30.09 inches Hg (1019.0 mb)
[Sea-level pressure: 1019.4 mb]
Winds: from the SE (140 degrees) at 18 MPH (16 knots; 8.3 m/s)
Visibility: 10 or more miles (16+ km)
Ceiling: at least 12,000 feet AGL
Clouds: sky clear below 12,000 feet AGL
Present Weather:
SOME DATA ABOVE MAY BE INACCURATE!!!
"$" is an indication the sensor requires maintenance
KCOF 281658Z AUTO 14016KT 10SM CLR 29/24 A3009 RMK AO2 SLP194 T02930239 $

Conditions at: KCOF observed 28 April 2017  15:58 UTC
Temperature: 29.0°C (84°F)
Dewpoint: 24.1°C (75°F) [RH = 75%]
Pressure (altimeter): 30.10 inches Hg (1019.4 mb)
[Sea-level pressure: 1019.7 mb]
Winds: from the SE (130 degrees) at 16 MPH (14 knots; 7.3 m/s)
Visibility: 10 or more miles (16+ km)
Ceiling: at least 12,000 feet AGL
Clouds: sky clear below 12,000 feet AGL
Present Weather:
SOME DATA ABOVE MAY BE INACCURATE!!!
"$" is an indication the sensor requires maintenance
KCOF 281558Z AUTO 13014KT 10SM CLR 29/24 A3010 RMK AO2 SLP197 T02900241 $